createdAt,value
2018-04-19T00:00:15.205Z,20.57
2018-04-19T00:02:42.736Z,19.53
2018-04-19T00:05:11.019Z,20.30
2018-04-19T00:07:38.578Z,20.83
2018-04-19T00:10:06.092Z,20.40
2018-04-19T00:12:33.606Z,20.87
2018-04-19T00:15:01.176Z,19.63
2018-04-19T00:17:28.701Z,21.10
2018-04-19T00:19:56.990Z,20.93
2018-04-19T00:22:24.542Z,21.17
2018-04-19T00:24:52.071Z,20.43
2018-04-19T00:27:19.597Z,22.30
2018-04-19T00:29:47.148Z,22.00
2018-04-19T00:32:14.664Z,20.90
2018-04-19T00:34:42.954Z,21.40
2018-04-19T00:37:10.523Z,21.50
2018-04-19T00:39:38.102Z,22.00
2018-04-19T00:42:05.617Z,22.00
2018-04-19T00:44:33.946Z,21.80
2018-04-19T00:47:01.493Z,20.70
2018-04-19T00:49:29.014Z,22.40
2018-04-19T00:51:57.336Z,23.30
2018-04-19T00:54:26.632Z,22.60
2018-04-19T00:56:54.238Z,23.60
2018-04-19T00:59:22.680Z,23.30
2018-04-19T01:01:50.206Z,24.40
2018-04-19T01:04:17.784Z,23.60
2018-04-19T01:06:45.353Z,23.17
2018-04-19T01:09:13.236Z,23.07
2018-04-19T01:11:40.761Z,23.50
2018-04-19T01:14:08.327Z,23.40
2018-04-19T01:16:35.855Z,24.00
2018-04-19T01:19:03.374Z,23.87
2018-04-19T01:21:30.940Z,25.27
2018-04-19T01:23:58.555Z,24.73
2018-04-19T01:26:26.078Z,24.47
2018-04-19T01:28:54.402Z,24.50
2018-04-19T01:31:21.970Z,24.73
2018-04-19T01:33:49.517Z,25.60
2018-04-19T01:36:23.772Z,24.23
2018-04-19T01:38:51.308Z,26.07
2018-04-19T01:41:18.940Z,26.63
2018-04-19T01:43:47.095Z,27.67
2018-04-19T01:46:14.653Z,28.10
2018-04-19T01:48:42.179Z,25.77
2018-04-19T01:51:09.811Z,26.50
2018-04-19T01:53:37.362Z,27.40
2018-04-19T01:56:04.879Z,28.93
2018-04-19T01:58:33.280Z,28.13
2018-04-19T02:01:00.809Z,28.90
2018-04-19T02:03:29.104Z,29.27
2018-04-19T02:05:56.687Z,30.20
2018-04-19T02:08:24.209Z,29.20
2018-04-19T02:10:51.824Z,28.77
2018-04-19T02:13:19.464Z,28.20
2018-04-19T02:15:47.000Z,29.77
2018-04-19T02:18:14.588Z,28.93
2018-04-19T02:20:42.153Z,32.73
2018-04-19T02:23:09.689Z,31.90
2018-04-19T02:25:37.205Z,30.40
2018-04-19T02:28:05.535Z,31.20
2018-04-19T02:30:33.057Z,31.03
2018-04-19T02:33:00.595Z,31.50
2018-04-19T02:35:28.935Z,32.07
2018-04-19T02:37:56.454Z,32.17
2018-04-19T02:40:23.994Z,32.23
2018-04-19T02:42:52.340Z,33.60
2018-04-19T02:45:19.970Z,32.13
2018-04-19T02:47:47.517Z,31.97
2018-04-19T02:50:15.078Z,33.20
2018-04-19T02:52:42.598Z,31.20
2018-04-19T02:55:10.877Z,34.40
2018-04-19T02:57:39.188Z,32.40
2018-04-19T03:00:06.739Z,32.87
2018-04-19T03:02:34.313Z,32.57
2018-04-19T03:05:01.863Z,34.13
2018-04-19T03:07:29.391Z,32.87
2018-04-19T03:09:57.725Z,31.60
2018-04-19T03:12:25.301Z,34.07
2018-04-19T03:14:52.836Z,33.63
2018-04-19T03:17:20.387Z,34.90
2018-04-19T03:19:47.938Z,35.43
2018-04-19T03:22:15.464Z,33.40
2018-04-19T03:24:43.772Z,36.73
2018-04-19T03:27:11.347Z,34.43
2018-04-19T03:29:38.896Z,36.50
2018-04-19T03:32:06.446Z,35.27
2018-04-19T03:34:34.029Z,34.93
2018-04-19T03:37:01.557Z,37.30
2018-04-19T03:39:29.127Z,34.13
2018-04-19T03:41:56.672Z,36.80
2018-04-19T03:44:24.209Z,35.63
2018-04-19T03:46:52.494Z,38.33
2018-04-19T03:49:20.806Z,37.03
2018-04-19T03:51:48.327Z,37.67
2018-04-19T03:54:16.647Z,38.77
2018-04-19T03:56:44.285Z,38.67
2018-04-19T03:59:11.815Z,36.80
2018-04-19T04:01:40.113Z,36.27
2018-04-19T04:04:07.700Z,37.57
2018-04-19T04:06:35.233Z,36.00
2018-04-19T04:09:02.774Z,35.40
2018-04-19T04:11:31.189Z,38.47
2018-04-19T04:13:58.716Z,40.27
2018-04-19T04:16:38.291Z,36.80
2018-04-19T04:19:17.606Z,37.40
2018-04-19T04:21:57.164Z,36.43
2018-04-19T04:24:24.708Z,37.40
2018-04-19T04:26:52.243Z,37.80
2018-04-19T04:29:20.564Z,37.90
2018-04-19T04:31:48.099Z,37.87
2018-04-19T04:34:16.139Z,36.53
2018-04-19T04:36:44.479Z,37.33
2018-04-19T04:39:12.007Z,38.13
2018-04-19T04:41:39.520Z,36.27
2018-04-19T04:44:07.085Z,37.63
2018-04-19T04:46:35.409Z,36.10
2018-04-19T04:49:02.946Z,35.07
2018-04-19T04:51:30.497Z,36.27
2018-04-19T04:53:58.090Z,35.40
2018-04-19T04:56:25.604Z,35.57
2018-04-19T04:58:54.030Z,38.07
2018-04-19T05:01:21.566Z,34.83
2018-04-19T05:03:49.112Z,35.20
2018-04-19T05:06:16.684Z,37.40
2018-04-19T05:08:44.243Z,37.60
2018-04-19T05:11:11.767Z,35.10
2018-04-19T05:13:40.096Z,37.90
2018-04-19T05:16:07.625Z,34.63
2018-04-19T05:18:35.142Z,33.80
2018-04-19T05:21:02.702Z,33.70
2018-04-19T05:23:30.229Z,30.90
2018-04-19T05:25:57.745Z,30.00
2018-04-19T05:28:26.061Z,29.43
2018-04-19T05:30:53.586Z,29.73
2018-04-19T05:33:21.183Z,30.20
2018-04-19T05:35:48.747Z,27.90
2018-04-19T05:38:16.272Z,28.00
2018-04-19T05:40:43.806Z,27.67
2018-04-19T05:43:12.143Z,27.10
2018-04-19T05:45:39.697Z,26.80
2018-04-19T05:48:07.233Z,26.60
2018-04-19T05:50:34.785Z,26.17
2018-04-19T05:53:02.977Z,25.70
2018-04-19T05:55:30.503Z,25.60
2018-04-19T05:57:58.910Z,24.73
2018-04-19T06:00:26.517Z,25.67
2018-04-19T06:02:54.059Z,25.67
2018-04-19T06:05:21.620Z,25.10
2018-04-19T06:07:50.075Z,23.50
2018-04-19T06:10:17.616Z,23.70
2018-04-19T06:12:45.182Z,22.33
2018-04-19T06:15:12.719Z,24.40
2018-04-19T06:17:40.299Z,23.27
2018-04-19T06:20:07.962Z,25.40
2018-04-19T06:22:35.481Z,24.50
2018-04-19T06:25:03.791Z,23.30
2018-04-19T06:27:31.768Z,23.50
2018-04-19T06:29:59.301Z,22.73
2018-04-19T06:32:27.044Z,21.67
2018-04-19T06:34:54.681Z,22.13
2018-04-19T06:37:22.980Z,21.83
2018-04-19T06:39:51.290Z,22.37
2018-04-19T06:42:18.866Z,20.60
2018-04-19T06:44:46.399Z,22.23
2018-04-19T06:47:13.924Z,21.60
2018-04-19T06:49:42.254Z,21.03
2018-04-19T06:52:10.085Z,21.03
2018-04-19T06:54:38.609Z,20.80
2018-04-19T06:57:06.163Z,20.30
2018-04-19T06:59:33.722Z,19.10
2018-04-19T07:02:01.311Z,19.60
2018-04-19T07:04:28.875Z,19.70
2018-04-19T07:06:56.505Z,20.43
2018-04-19T07:09:25.633Z,20.20
2018-04-19T07:11:54.065Z,19.87
2018-04-19T07:14:21.607Z,18.53
2018-04-19T07:16:49.177Z,19.60
2018-04-19T07:19:16.772Z,19.40
2018-04-19T07:21:44.304Z,19.10
2018-04-19T07:24:11.827Z,19.60
2018-04-19T07:26:40.144Z,17.73
2018-04-19T07:29:07.939Z,18.50
2018-04-19T07:31:35.481Z,18.63
2018-04-19T07:34:03.052Z,17.97
2018-04-19T07:36:30.568Z,18.73
2018-04-19T07:38:58.147Z,17.80
2018-04-19T07:41:25.805Z,18.83
2018-04-19T07:43:53.324Z,17.77
2018-04-19T07:46:20.907Z,18.33
2018-04-19T07:48:48.568Z,17.27
2018-04-19T07:51:16.085Z,17.07
2018-04-19T07:53:44.372Z,17.50
2018-04-19T07:56:12.792Z,17.50
2018-04-19T07:58:40.345Z,17.43
2018-04-19T08:01:07.861Z,16.93
2018-04-19T08:03:36.172Z,16.70
2018-04-19T08:06:03.699Z,16.10
2018-04-19T08:08:32.009Z,16.50
2018-04-19T08:10:59.563Z,15.10
2018-04-19T08:13:27.313Z,15.40
2018-04-19T08:15:54.900Z,15.70
2018-04-19T08:18:22.565Z,15.30
2018-04-19T08:20:50.111Z,16.40
2018-04-19T08:23:17.672Z,16.53
2018-04-19T08:25:45.229Z,14.57
2018-04-19T08:28:12.788Z,16.70
2018-04-19T08:30:40.327Z,15.73
2018-04-19T08:33:07.888Z,14.90
2018-04-19T08:35:35.410Z,15.83
2018-04-19T08:38:03.021Z,14.37
2018-04-19T08:40:30.582Z,14.10
2018-04-19T08:42:58.110Z,14.73
2018-04-19T08:45:26.401Z,15.13
2018-04-19T08:47:53.957Z,14.07
2018-04-19T08:50:21.504Z,13.90
2018-04-19T08:52:49.791Z,14.20
2018-04-19T08:55:17.342Z,13.80
2018-04-19T08:57:44.920Z,13.93
2018-04-19T09:00:12.491Z,13.13
2018-04-19T09:02:40.054Z,13.80
2018-04-19T09:05:07.579Z,13.10
2018-04-19T09:07:35.123Z,13.73
2018-04-19T09:10:03.456Z,12.40
2018-04-19T09:12:30.974Z,13.30
2018-04-19T09:14:58.499Z,13.10
2018-04-19T09:17:26.054Z,12.50
2018-04-19T09:19:53.585Z,12.43
2018-04-19T09:22:21.130Z,14.07
2018-04-19T09:24:48.699Z,13.27
2018-04-19T09:27:16.209Z,13.10
2018-04-19T09:29:44.485Z,11.70
2018-04-19T09:32:12.804Z,12.90
2018-04-19T09:34:40.317Z,10.80
2018-04-19T09:37:08.626Z,12.67
2018-04-19T09:39:36.231Z,10.93
2018-04-19T09:42:03.764Z,10.37
2018-04-19T09:44:31.284Z,12.13
2018-04-19T09:46:58.837Z,11.50
2018-04-19T09:49:27.132Z,11.13
2018-04-19T09:51:54.677Z,11.60
2018-04-19T09:54:22.225Z,11.07
2018-04-19T09:56:50.500Z,11.60
2018-04-19T09:59:18.793Z,11.60
2018-04-19T10:01:51.260Z,12.00
2018-04-19T10:04:24.550Z,12.80
2018-04-19T10:06:52.142Z,10.63
2018-04-19T10:09:19.678Z,11.13
2018-04-19T10:11:47.217Z,11.17
2018-04-19T10:14:15.626Z,10.53
2018-04-19T10:16:43.142Z,9.70
2018-04-19T10:19:11.446Z,10.40
2018-04-19T10:21:39.017Z,10.17
2018-04-19T10:24:06.579Z,10.50
2018-04-19T10:26:34.155Z,11.13
2018-04-19T10:29:01.721Z,8.93
2018-04-19T10:31:29.251Z,10.63
2018-04-19T10:33:56.774Z,9.50
2018-04-19T10:36:25.113Z,9.03
2018-04-19T10:38:52.636Z,10.40
2018-04-19T10:41:20.162Z,9.80
2018-04-19T10:43:48.497Z,9.47
2018-04-19T10:46:16.011Z,9.30
2018-04-19T10:48:44.323Z,8.93
2018-04-19T10:51:11.887Z,8.60
2018-04-19T10:53:39.412Z,7.37
2018-04-19T10:56:06.949Z,9.23
2018-04-19T10:58:35.270Z,8.40
2018-04-19T11:01:03.445Z,7.87
2018-04-19T11:03:30.961Z,8.20
2018-04-19T11:05:59.292Z,7.27
2018-04-19T11:08:26.887Z,8.27
2018-04-19T11:10:54.421Z,7.60
2018-04-19T11:13:21.975Z,6.83
2018-04-19T11:15:49.509Z,6.00
2018-04-19T11:18:17.078Z,6.37
2018-04-19T11:20:45.700Z,7.10
2018-04-19T11:23:13.232Z,5.97
2018-04-19T11:25:40.766Z,6.50
2018-04-19T11:28:08.423Z,5.83
2018-04-19T11:30:35.935Z,5.97
2018-04-19T11:33:03.556Z,5.00
2018-04-19T11:35:31.109Z,5.40
2018-04-19T11:37:58.687Z,5.70
2018-04-19T11:40:26.245Z,6.50
2018-04-19T11:42:53.816Z,6.23
2018-04-19T11:45:21.460Z,5.60
2018-04-19T11:47:48.987Z,6.70
2018-04-19T11:50:16.570Z,5.53
2018-04-19T11:52:44.100Z,6.70
2018-04-19T11:55:11.610Z,6.83
2018-04-19T11:57:39.172Z,7.67
2018-04-19T12:00:08.243Z,8.00
2018-04-19T12:02:35.771Z,7.80
2018-04-19T12:05:03.644Z,6.60
2018-04-19T12:07:31.240Z,6.90
2018-04-19T12:09:58.785Z,6.93
2018-04-19T12:12:26.335Z,8.20
2018-04-19T12:14:53.873Z,7.80
2018-04-19T12:17:21.382Z,6.60
2018-04-19T12:19:48.940Z,4.90
2018-04-19T12:22:16.473Z,5.77
2018-04-19T12:24:43.989Z,3.80
2018-04-19T12:27:12.310Z,4.43
2018-04-19T12:29:39.824Z,3.87
2018-04-19T12:32:08.116Z,4.70
2018-04-19T12:34:35.663Z,4.27
2018-04-19T12:37:03.937Z,4.30
2018-04-19T12:39:32.247Z,4.13
2018-04-19T12:41:59.793Z,3.93
2018-04-19T12:44:27.316Z,3.20
2018-04-19T12:46:55.646Z,4.03
2018-04-19T12:49:23.203Z,4.00
2018-04-19T12:51:50.747Z,3.50
2018-04-19T12:54:18.272Z,3.50
2018-04-19T12:56:46.588Z,3.50
2018-04-19T12:59:14.101Z,4.33
2018-04-19T13:01:42.444Z,3.77
2018-04-19T13:04:10.158Z,3.93
2018-04-19T13:06:38.456Z,3.77
2018-04-19T13:09:05.992Z,3.87
2018-04-19T13:11:33.872Z,3.33
2018-04-19T13:14:01.417Z,4.00
2018-04-19T13:16:29.029Z,3.67
2018-04-19T13:18:56.580Z,3.77
2018-04-19T13:21:24.132Z,3.43
2018-04-19T13:23:51.705Z,3.33
2018-04-19T13:26:19.260Z,3.67
2018-04-19T13:28:46.770Z,3.53
2018-04-19T13:31:14.291Z,3.90
2018-04-19T13:33:41.850Z,3.60
2018-04-19T13:36:09.379Z,3.60
2018-04-19T13:38:37.027Z,3.23
2018-04-19T13:41:04.582Z,3.30
2018-04-19T13:43:32.102Z,3.43
2018-04-19T13:46:00.384Z,3.07
2018-04-19T13:48:28.703Z,2.80
2018-04-19T13:50:56.213Z,4.57
2018-04-19T13:53:24.505Z,3.60
2018-04-19T13:55:52.909Z,3.00
2018-04-19T13:58:20.425Z,3.07
2018-04-19T14:00:48.705Z,3.13
2018-04-19T14:03:18.149Z,3.57
2018-04-19T14:05:45.655Z,3.27
2018-04-19T14:08:13.984Z,3.00
2018-04-19T14:10:41.539Z,2.87
2018-04-19T14:13:09.053Z,3.07
2018-04-19T14:15:37.333Z,3.00
2018-04-19T14:18:05.746Z,2.80
2018-04-19T14:20:33.274Z,2.90
2018-04-19T14:23:01.557Z,3.17
2018-04-19T14:25:29.986Z,2.70
2018-04-19T14:27:57.497Z,2.90
2018-04-19T14:30:25.025Z,3.10
2018-04-19T14:32:52.655Z,2.47
2018-04-19T14:35:20.187Z,3.37
2018-04-19T14:37:47.694Z,2.70
2018-04-19T14:40:15.234Z,3.00
2018-04-19T14:42:42.753Z,2.80
2018-04-19T14:45:10.335Z,2.93
2018-04-19T14:47:37.905Z,2.90
2018-04-19T14:50:05.417Z,2.63
2018-04-19T14:52:33.736Z,2.67
2018-04-19T14:55:01.286Z,3.10
2018-04-19T14:57:28.848Z,2.30
2018-04-19T14:59:56.371Z,2.23
2018-04-19T15:02:24.702Z,2.30
2018-04-19T15:04:52.230Z,2.63
2018-04-19T15:07:19.790Z,2.90
2018-04-19T15:09:47.356Z,3.23
2018-04-19T15:12:14.899Z,2.77
2018-04-19T15:14:42.413Z,3.00
2018-04-19T15:17:10.752Z,2.73
2018-04-19T15:19:38.298Z,2.90
2018-04-19T15:22:05.813Z,2.80
2018-04-19T15:24:34.131Z,2.93
2018-04-19T15:27:01.678Z,2.70
2018-04-19T15:29:29.208Z,2.93
2018-04-19T15:31:57.646Z,2.77
2018-04-19T15:34:25.199Z,2.60
2018-04-19T15:36:52.694Z,2.97
2018-04-19T15:39:20.299Z,2.57
2018-04-19T15:41:47.869Z,2.37
2018-04-19T15:44:15.432Z,2.33
2018-04-19T15:46:42.970Z,2.80
2018-04-19T15:49:10.499Z,2.83
2018-04-19T15:51:38.813Z,4.30
2018-04-19T15:54:06.398Z,2.67
2018-04-19T15:56:33.927Z,3.50
2018-04-19T15:59:01.494Z,3.67
2018-04-19T16:01:29.043Z,3.63
2018-04-19T16:03:56.554Z,3.10
2018-04-19T16:06:24.048Z,2.67
2018-04-19T16:08:51.605Z,2.40
2018-04-19T16:11:19.176Z,2.47
2018-04-19T16:13:47.898Z,2.80
2018-04-19T16:16:15.475Z,2.30
2018-04-19T16:18:42.989Z,2.70
2018-04-19T16:21:10.517Z,2.60
2018-04-19T16:23:38.836Z,2.73
2018-04-19T16:26:06.355Z,3.10
2018-04-19T16:28:33.882Z,2.70
2018-04-19T16:31:01.617Z,2.30
2018-04-19T16:33:29.202Z,2.30
2018-04-19T16:35:56.673Z,2.73
2018-04-19T16:38:24.996Z,2.60
2018-04-19T16:40:52.549Z,2.80
2018-04-19T16:43:20.109Z,2.30
2018-04-19T16:45:47.675Z,2.30
2018-04-19T16:48:15.230Z,2.40
2018-04-19T16:50:42.742Z,2.90
2018-04-19T16:53:11.116Z,3.23
2018-04-19T16:55:38.735Z,2.30
2018-04-19T16:58:06.992Z,2.80
2018-04-19T17:00:34.660Z,3.20
2018-04-19T17:03:02.191Z,3.77
2018-04-19T17:05:30.474Z,2.73
2018-04-19T17:07:58.361Z,4.10
2018-04-19T17:10:25.894Z,4.33
2018-04-19T17:12:53.486Z,4.07
2018-04-19T17:15:21.131Z,4.20
2018-04-19T17:17:48.666Z,4.63
2018-04-19T17:20:16.970Z,4.50
2018-04-19T17:22:44.550Z,4.90
2018-04-19T17:25:12.079Z,5.00
2018-04-19T17:27:39.615Z,4.87
2018-04-19T17:30:07.943Z,4.87
2018-04-19T17:32:35.457Z,5.63
2018-04-19T17:35:03.764Z,5.10
2018-04-19T17:37:31.306Z,5.20
2018-04-19T17:39:58.978Z,5.07
2018-04-19T17:42:26.497Z,5.23
2018-04-19T17:44:54.813Z,5.67
2018-04-19T17:47:22.377Z,5.60
2018-04-19T17:49:49.903Z,5.40
2018-04-19T17:52:18.221Z,5.10
2018-04-19T17:54:45.741Z,5.27
2018-04-19T17:57:14.027Z,4.57
2018-04-19T17:59:41.868Z,5.20
2018-04-19T18:02:10.150Z,8.43
2018-04-19T18:04:38.488Z,4.47
2018-04-19T18:07:06.057Z,5.40
2018-04-19T18:09:33.580Z,5.30
2018-04-19T18:12:01.312Z,5.20
2018-04-19T18:14:28.879Z,4.80
2018-04-19T18:16:56.524Z,5.17
2018-04-19T18:19:25.959Z,4.80
2018-04-19T18:21:53.524Z,5.20
2018-04-19T18:24:21.069Z,4.37
2018-04-19T18:26:48.659Z,4.70
2018-04-19T18:29:16.311Z,4.70
2018-04-19T18:31:43.882Z,5.20
2018-04-19T18:34:11.436Z,5.40
2018-04-19T18:36:39.000Z,5.00
2018-04-19T18:39:06.524Z,4.77
2018-04-19T18:41:34.049Z,5.90
2018-04-19T18:44:02.369Z,5.00
2018-04-19T18:46:29.922Z,5.30
2018-04-19T18:48:57.436Z,5.60
2018-04-19T18:51:24.985Z,5.00
2018-04-19T18:53:52.505Z,5.33
2018-04-19T18:56:20.041Z,4.70
2018-04-19T18:58:47.629Z,5.37
2018-04-19T19:01:15.190Z,5.60
2018-04-19T19:03:42.724Z,5.50
2018-04-19T19:06:10.274Z,5.40
2018-04-19T19:08:37.787Z,5.33
2018-04-19T19:11:05.332Z,6.10
2018-04-19T19:13:32.878Z,5.67
2018-04-19T19:16:15.248Z,5.97
2018-04-19T19:18:55.537Z,6.40
2018-04-19T19:21:23.100Z,6.60
2018-04-19T19:23:59.391Z,6.00
2018-04-19T19:26:26.941Z,6.63
2018-04-19T19:28:54.588Z,6.30
2018-04-19T19:31:22.130Z,7.00
2018-04-19T19:33:50.652Z,7.37
2018-04-19T19:36:18.289Z,6.97
2018-04-19T19:38:45.805Z,6.40
2018-04-19T19:41:14.619Z,6.97
2018-04-19T19:43:42.190Z,6.83
2018-04-19T19:46:09.713Z,6.70
2018-04-19T19:48:37.286Z,6.30
2018-04-19T19:51:04.840Z,7.43
2018-04-19T19:53:32.516Z,7.00
2018-04-19T19:56:00.070Z,8.10
2018-04-19T19:58:27.636Z,7.17
2018-04-19T20:00:55.173Z,7.40
2018-04-19T20:03:22.764Z,6.30
2018-04-19T20:05:50.397Z,7.10
2018-04-19T20:08:19.431Z,7.97
2018-04-19T20:10:46.948Z,7.80
2018-04-19T20:13:14.486Z,7.70
2018-04-19T20:15:43.152Z,8.77
2018-04-19T20:18:10.773Z,7.60
2018-04-19T20:20:38.436Z,8.10
2018-04-19T20:23:05.956Z,7.20
2018-04-19T20:25:33.485Z,7.03
2018-04-19T20:28:01.809Z,8.60
2018-04-19T20:30:29.346Z,7.70
2018-04-19T20:32:57.639Z,7.33
2018-04-19T20:35:25.214Z,7.57
2018-04-19T20:37:52.743Z,7.77
2018-04-19T20:40:21.047Z,7.50
2018-04-19T20:42:48.607Z,7.43
2018-04-19T20:45:16.165Z,7.67
2018-04-19T20:47:43.699Z,7.20
2018-04-19T20:50:11.297Z,8.27
2018-04-19T20:52:38.858Z,7.80
2018-04-19T20:55:06.426Z,8.77
2018-04-19T20:57:33.997Z,8.23
2018-04-19T21:00:01.645Z,7.73
2018-04-19T21:02:29.716Z,7.90
2018-04-19T21:04:57.269Z,8.40
2018-04-19T21:07:24.828Z,8.43
2018-04-19T21:09:52.368Z,8.53
2018-04-19T21:12:19.909Z,8.13
2018-04-19T21:14:47.488Z,8.60
2018-04-19T21:17:15.009Z,9.33
2018-04-19T21:19:43.338Z,7.90
2018-04-19T21:22:10.864Z,9.33
2018-04-19T21:24:38.425Z,9.13
2018-04-19T21:27:05.984Z,8.33
2018-04-19T21:29:33.520Z,9.60
2018-04-19T21:32:01.058Z,9.00
2018-04-19T21:34:28.685Z,8.70
2018-04-19T21:36:56.212Z,9.40
2018-04-19T21:39:23.755Z,8.93
2018-04-19T21:41:52.072Z,8.80
2018-04-19T21:44:19.603Z,9.50
2018-04-19T21:46:47.145Z,9.60
2018-04-19T21:49:15.455Z,8.40
2018-04-19T21:51:42.991Z,9.00
2018-04-19T21:54:11.280Z,8.70
2018-04-19T21:56:38.825Z,7.70
2018-04-19T21:59:07.114Z,9.63
2018-04-19T22:01:34.648Z,8.23
2018-04-19T22:04:02.971Z,9.17
2018-04-19T22:06:30.541Z,8.47
2018-04-19T22:08:58.067Z,8.77
2018-04-19T22:11:25.642Z,8.40
2018-04-19T22:13:53.156Z,8.33
2018-04-19T22:16:21.471Z,8.10
2018-04-19T22:18:49.322Z,7.60
2018-04-19T22:21:16.861Z,7.90
2018-04-19T22:23:45.162Z,7.17
2018-04-19T22:26:12.720Z,7.20
2018-04-19T22:28:40.247Z,7.40
2018-04-19T22:31:08.589Z,8.40
2018-04-19T22:33:36.144Z,7.90
2018-04-19T22:36:03.689Z,7.50
2018-04-19T22:38:31.214Z,7.60
2018-04-19T22:40:59.528Z,7.37
2018-04-19T22:43:27.044Z,8.37
2018-04-19T22:45:55.375Z,7.90
2018-04-19T22:48:22.916Z,7.43
2018-04-19T22:50:50.443Z,7.10
2018-04-19T22:53:17.977Z,8.20
2018-04-19T22:55:45.612Z,7.03
2018-04-19T22:58:13.150Z,7.37
2018-04-19T23:00:40.671Z,7.40
2018-04-19T23:03:08.985Z,8.00
2018-04-19T23:05:36.515Z,7.83
2018-04-19T23:08:04.022Z,8.10
2018-04-19T23:10:31.568Z,8.13
2018-04-19T23:12:59.094Z,8.63
2018-04-19T23:15:26.609Z,7.77
2018-04-19T23:17:54.168Z,8.20
2018-04-19T23:20:21.697Z,8.63
2018-04-19T23:22:49.227Z,8.90
2018-04-19T23:25:16.815Z,9.10
2018-04-19T23:27:44.358Z,7.80
2018-04-19T23:30:11.883Z,8.67
2018-04-19T23:32:40.198Z,8.40
2018-04-19T23:35:07.753Z,8.80
2018-04-19T23:37:35.262Z,8.67
2018-04-19T23:40:03.694Z,9.30
2018-04-19T23:42:31.219Z,9.17
2018-04-19T23:44:59.536Z,8.60
2018-04-19T23:47:27.099Z,9.17
2018-04-19T23:49:54.742Z,10.40
2018-04-19T23:52:22.261Z,8.57
2018-04-19T23:54:50.587Z,9.40
2018-04-19T23:57:18.109Z,7.90
2018-04-19T23:59:46.433Z,8.83
